MST,Max TemperatureF,Mean TemperatureF,Min TemperatureF,Max Dew PointF,MeanDew PointF,Min DewpointF,Max Humidity, Mean Humidity, Min Humidity, Max Sea Level PressureIn, Mean Sea Level PressureIn, Min Sea Level PressureIn, Max VisibilityMiles, Mean VisibilityMiles, Min VisibilityMiles, Max Wind SpeedMPH, Mean Wind SpeedMPH, Max Gust SpeedMPH,PrecipitationIn, CloudCover, Events, WindDirDegrees
2013-2-1,39,28,17,33,27,13,92,83,73,30.15,30.08,30.01,,,,18,8,25,0.00,,,276
2013-2-2,44,35,26,28,24,21,92,68,43,30.28,30.21,30.11,,,,24,11,30,0.00,,,284
2013-2-3,46,36,25,29,25,22,92,71,49,30.09,29.96,29.89,,,,25,8,32,0.00,,,289
2013-2-4,47,37,27,30,28,25,92,71,49,29.93,29.83,29.76,,,,21,9,28,0.00,,,284
2013-2-5,47,38,29,32,28,24,92,73,53,29.99,29.87,29.71,,,,13,5,16,0.00,,,238
2013-2-6,48,38,27,30,26,24,85,62,39,30.06,29.89,29.72,,,,24,10,30,0.00,,,277
2013-2-7,47,34,21,27,24,18,88,63,37,30.13,30.04,29.95,,,,14,4,18,0.00,,,230
2013-2-8,44,32,19,28,23,16,96,71,45,30.01,29.98,29.94,,,,10,4,13,0.00,,,306
2013-2-9,45,30,15,28,21,14,92,66,40,29.98,29.93,29.85,,,,14,6,16,0.01,,,293
2013-2-10,31,22,12,27,19,11,92,83,74,30.25,30.11,29.95,,,,26,15,31,0.01,,,320
2013-2-11,37,17,-4,21,12,-4,95,71,47,30.23,30.08,29.99,,,,14,5,17,0.00,,,271
2013-2-12,45,34,23,26,23,19,88,67,45,30.05,29.97,29.81,,,,22,9,28,0.00,,,273
2013-2-13,47,39,30,29,24,16,72,58,44,30.09,29.88,29.74,,,,39,21,45,0.00,,,301
2013-2-14,33,26,19,21,17,13,84,64,43,30.43,30.35,30.10,,,,35,16,44,0.00,,,322
2013-2-15,42,30,17,27,19,13,84,60,35,30.46,30.30,30.08,,,,16,7,21,0.00,,,264
2013-2-16,56,40,24,29,26,23,92,62,32,30.08,29.93,29.70,,,,20,6,24,0.00,,,285
2013-2-17,39,34,29,31,28,24,89,74,59,30.02,29.75,29.61,,,,30,14,39,0.04,,,300
2013-2-18,29,19,9,23,16,6,92,77,62,30.29,30.20,30.04,,,,16,7,20,0.01,,,32
2013-2-19,25,16,7,15,9,4,91,76,60,30.29,30.11,29.98,,,,25,14,32,0.00,,,105
2013-2-20,25,17,8,12,8,4,80,68,55,30.07,30.02,29.88,,,,12,4,14,0.00,,,61
2013-2-21,34,24,13,22,16,10,88,75,61,30.12,30.05,29.93,,,,8,2,12,0.00,,,100
2013-2-22,46,29,12,22,16,10,92,60,28,29.97,29.84,29.62,,,,16,6,21,0.00,,,250
2013-2-23,45,38,30,28,24,19,78,59,39,29.96,29.71,29.57,,,,24,8,33,0.00,,,287
2013-2-24,45,33,20,26,20,15,92,62,31,30.18,30.09,29.97,,,,23,10,28,0.00,,,263
2013-2-25,49,35,21,28,19,16,75,51,26,30.01,29.88,29.79,,,,15,5,18,0.00,,,261
2013-2-26,36,32,27,27,22,18,81,67,52,30.29,30.09,29.86,,,,23,12,29,0.00,,,308
2013-2-27,41,28,14,22,19,12,96,69,41,30.37,30.31,30.25,,,,15,4,18,0.00,,,49
2013-2-28,47,32,17,23,18,15,92,64,36,30.33,30.26,30.21,,,,23,8,29,0.00,,,298